Aviation Digital Data Service (ADDS)

Output produced by METARs form (0617 UTC 21 January 2019)
found at http://www.aviationweather.gov/metar/data/
 
Forecast for: RJFK (KAGOSHIMA AIRPOR, JP)
Text: TAF RJFK 210506Z 2106/2212 31006KT 9999 FEW040
Forecast period: 0600 UTC 21 January 2019 to 1200 UTC 22 January 2019
Forecast type: FROM: standard forecast or significant change
Winds: from the NW (310 degrees) at 7 MPH (6 knots; 3.1 m/s)
Visibility: 6 or more miles 10+ km)
Ceiling: at least 12,000 feet AGL
Clouds: few clouds at 4000 feet AGL
Weather: no significant weather forecast for this period